createdAt,value
2023-04-23T00:01:10.645Z,1.10
2023-04-23T00:04:36.578Z,1.10
2023-04-23T00:08:00.588Z,1.10
2023-04-23T00:11:23.105Z,0.95
2023-04-23T00:14:45.599Z,0.88
2023-04-23T00:18:08.072Z,1.10
2023-04-23T00:21:31.400Z,1.00
2023-04-23T00:24:53.772Z,1.00
2023-04-23T00:28:16.407Z,0.70
2023-04-23T00:31:39.255Z,0.93
2023-04-23T00:35:01.490Z,1.20
2023-04-23T00:38:23.942Z,1.33
2023-04-23T00:41:46.543Z,1.10
2023-04-23T00:45:10.226Z,1.13
2023-04-23T00:48:34.320Z,0.70
2023-04-23T00:51:56.741Z,0.70
2023-04-23T00:55:21.127Z,1.02
2023-04-23T00:58:44.441Z,1.27
2023-04-23T01:02:06.908Z,1.20
2023-04-23T01:05:29.399Z,1.02
2023-04-23T01:08:51.871Z,0.90
2023-04-23T01:12:15.191Z,0.77
2023-04-23T01:15:37.503Z,0.80
2023-04-23T01:19:00.628Z,0.95
2023-04-23T01:22:23.008Z,0.82
2023-04-23T01:25:45.354Z,0.70
2023-04-23T01:29:08.121Z,0.75
2023-04-23T01:32:31.870Z,0.80
2023-04-23T01:35:55.689Z,1.08
2023-04-23T01:39:18.164Z,0.85
2023-04-23T01:42:41.254Z,0.70
2023-04-23T01:46:03.778Z,0.93
2023-04-23T01:49:26.088Z,0.80
2023-04-23T01:52:48.633Z,0.90
2023-04-23T01:56:11.628Z,1.00
2023-04-23T01:59:33.961Z,0.90
2023-04-23T02:02:56.682Z,0.90
2023-04-23T02:06:19.266Z,0.68
2023-04-23T02:09:41.925Z,0.70
2023-04-23T02:13:04.858Z,0.50
2023-04-23T02:16:28.380Z,0.70
2023-04-23T02:19:50.777Z,0.90
2023-04-23T02:23:13.033Z,0.80
2023-04-23T02:26:35.314Z,0.77
2023-04-23T02:29:57.576Z,0.63
2023-04-23T02:33:20.053Z,0.90
2023-04-23T02:36:42.290Z,0.50
2023-04-23T02:40:05.991Z,0.80
2023-04-23T02:43:28.227Z,0.60
2023-04-23T02:46:51.621Z,0.80
2023-04-23T02:50:13.883Z,0.70
2023-04-23T02:53:36.522Z,0.70
2023-04-23T02:56:59.208Z,0.60
2023-04-23T03:00:21.582Z,0.43
2023-04-23T03:03:44.330Z,0.47
2023-04-23T03:07:06.664Z,0.50
2023-04-23T03:10:29.532Z,0.68
2023-04-23T03:13:51.931Z,0.93
2023-04-23T03:17:14.227Z,0.47
2023-04-23T03:20:37.159Z,0.73
2023-04-23T03:23:59.450Z,0.40
2023-04-23T03:27:21.757Z,0.80
2023-04-23T03:30:44.409Z,0.40
2023-04-23T03:34:06.808Z,0.75
2023-04-23T03:37:30.677Z,0.52
2023-04-23T03:40:53.333Z,0.70
2023-04-23T03:44:16.016Z,0.55
2023-04-23T03:47:40.995Z,0.40
2023-04-23T03:51:03.938Z,0.57
2023-04-23T03:54:34.082Z,0.50
2023-04-23T03:58:17.458Z,0.43
2023-04-23T04:01:43.329Z,0.30
2023-04-23T04:05:07.069Z,0.40
2023-04-23T04:08:29.821Z,0.40
2023-04-23T04:11:54.341Z,0.52
2023-04-23T04:15:17.639Z,0.50
2023-04-23T04:18:41.138Z,0.73
2023-04-23T04:22:03.761Z,0.50
2023-04-23T04:25:28.854Z,0.30
2023-04-23T04:32:14.008Z,0.50
2023-04-23T04:35:36.306Z,0.38
2023-04-23T04:38:58.775Z,0.30
2023-04-23T04:42:21.207Z,0.30
2023-04-23T04:45:44.765Z,0.30
2023-04-23T04:49:11.373Z,0.68
2023-04-23T04:52:33.620Z,0.50
2023-04-23T04:55:55.906Z,0.38
2023-04-23T04:59:18.086Z,0.43
2023-04-23T05:02:40.745Z,0.52
2023-04-23T05:06:03.048Z,0.40
2023-04-23T05:09:25.809Z,0.30
2023-04-23T05:12:48.139Z,0.40
2023-04-23T05:16:11.999Z,0.50
2023-04-23T05:19:34.268Z,0.47
2023-04-23T05:22:56.902Z,0.40
2023-04-23T05:26:19.530Z,0.40
2023-04-23T05:29:41.758Z,0.32
2023-04-23T05:33:04.091Z,0.30
2023-04-23T05:36:26.361Z,0.20
2023-04-23T05:39:48.775Z,0.47
2023-04-23T05:43:11.557Z,0.30
2023-04-23T05:46:33.828Z,0.40
2023-04-23T05:49:57.377Z,0.20
2023-04-23T05:53:19.820Z,0.30
2023-04-23T05:56:42.034Z,0.30
2023-04-23T06:00:06.127Z,0.45
2023-04-23T06:03:34.928Z,0.35
2023-04-23T06:06:57.288Z,0.52
2023-04-23T06:10:19.595Z,0.30
2023-04-23T06:13:43.923Z,0.47
2023-04-23T06:17:06.559Z,0.47
2023-04-23T06:20:29.684Z,0.40
2023-04-23T06:23:51.934Z,0.55
2023-04-23T06:27:14.202Z,0.40
2023-04-23T06:30:40.969Z,0.75
2023-04-23T06:34:03.675Z,0.70
2023-04-23T06:37:28.126Z,0.50
2023-04-23T06:40:51.768Z,0.52
2023-04-23T06:44:14.000Z,0.50
2023-04-23T06:47:43.481Z,0.55
2023-04-23T06:51:06.219Z,0.70
2023-04-23T06:54:28.456Z,0.70
2023-04-23T06:57:50.701Z,0.70
2023-04-23T07:01:13.408Z,0.57
2023-04-23T07:04:36.825Z,0.70
2023-04-23T07:07:59.242Z,1.30
2023-04-23T07:11:21.562Z,0.70
2023-04-23T07:14:44.202Z,0.60
2023-04-23T07:18:06.904Z,0.57
2023-04-23T07:21:29.671Z,0.73
2023-04-23T07:24:52.859Z,0.90
2023-04-23T07:28:15.208Z,0.60
2023-04-23T07:31:39.371Z,0.40
2023-04-23T07:35:01.810Z,0.40
2023-04-23T07:38:24.053Z,0.90
2023-04-23T07:41:46.476Z,0.57
2023-04-23T07:45:09.554Z,0.75
2023-04-23T07:48:31.878Z,0.43
2023-04-23T07:51:54.156Z,0.55
2023-04-23T07:55:16.417Z,0.70
2023-04-23T07:58:38.888Z,0.60
2023-04-23T08:02:01.232Z,0.70
2023-04-23T08:05:23.604Z,0.50
2023-04-23T08:08:45.864Z,0.50
2023-04-23T08:12:08.078Z,0.35
2023-04-23T08:15:30.379Z,0.40
2023-04-23T08:19:04.222Z,0.38
2023-04-23T08:22:27.986Z,0.52
2023-04-23T08:25:50.531Z,0.20
2023-04-23T08:29:12.776Z,0.40
2023-04-23T08:32:35.070Z,0.30
2023-04-23T08:35:57.334Z,0.60
2023-04-23T08:39:19.674Z,0.20
2023-04-23T08:42:53.872Z,0.30
2023-04-23T08:46:17.410Z,0.15
2023-04-23T08:49:42.773Z,0.10
2023-04-23T08:53:07.058Z,0.20
2023-04-23T08:56:30.530Z,0.10
2023-04-23T08:59:53.298Z,0.00
2023-04-23T09:03:19.312Z,0.13
2023-04-23T09:06:41.783Z,0.10
2023-04-23T09:10:08.122Z,0.20
2023-04-23T09:13:34.058Z,0.25
2023-04-23T09:16:56.437Z,0.20
2023-04-23T09:20:18.864Z,0.10
2023-04-23T09:23:41.654Z,0.38
2023-04-23T09:27:04.025Z,1.50
2023-04-23T09:30:27.507Z,8.90
2023-04-23T09:33:53.704Z,6.05
2023-04-23T09:37:19.052Z,7.93
2023-04-23T09:40:41.592Z,6.65
2023-04-23T09:44:03.890Z,7.68
2023-04-23T09:47:26.332Z,6.60
2023-04-23T09:50:48.628Z,6.00
2023-04-23T09:54:16.393Z,5.30
2023-04-23T09:57:40.996Z,4.15
2023-04-23T10:01:08.170Z,4.47
2023-04-23T10:04:30.646Z,3.30
2023-04-23T10:07:53.313Z,2.47
2023-04-23T10:14:43.222Z,3.08
2023-04-23T10:18:07.440Z,2.30
2023-04-23T10:21:42.575Z,2.70
2023-04-23T10:25:12.777Z,2.72
2023-04-23T10:28:36.196Z,2.03
2023-04-23T10:32:03.290Z,2.47
2023-04-23T10:35:25.659Z,2.10
2023-04-23T10:38:57.249Z,1.83
2023-04-23T10:42:22.610Z,2.17
2023-04-23T10:45:45.285Z,1.48
2023-04-23T10:49:11.493Z,1.77
2023-04-23T10:52:35.822Z,1.60
2023-04-23T10:56:10.007Z,1.73
2023-04-23T10:59:38.443Z,1.52
2023-04-23T11:03:02.651Z,1.60
2023-04-23T11:06:48.222Z,1.40
2023-04-23T11:10:14.612Z,1.30
2023-04-23T11:13:50.711Z,1.33
2023-04-23T11:17:14.785Z,1.38
2023-04-23T11:20:37.041Z,1.33
2023-04-23T11:24:02.305Z,1.20
2023-04-23T11:27:24.702Z,1.10
2023-04-23T11:30:51.062Z,1.20
2023-04-23T11:34:13.342Z,1.17
2023-04-23T11:37:40.987Z,1.10
2023-04-23T11:41:03.516Z,0.95
2023-04-23T11:44:25.799Z,0.82
2023-04-23T11:47:55.960Z,0.85
2023-04-23T11:51:18.266Z,0.80
2023-04-23T11:54:41.909Z,0.70
2023-04-23T11:58:04.346Z,0.63
2023-04-23T12:01:26.559Z,1.27
2023-04-23T12:04:48.891Z,0.60
2023-04-23T12:08:11.986Z,0.57
2023-04-23T12:11:36.250Z,0.70
2023-04-23T12:15:07.019Z,0.70
2023-04-23T12:18:41.448Z,0.50
2023-04-23T12:22:04.622Z,0.50
2023-04-23T12:25:27.108Z,0.90
2023-04-23T12:28:54.984Z,0.95
2023-04-23T12:32:21.251Z,1.10
2023-04-23T12:35:49.426Z,1.00
2023-04-23T12:39:32.227Z,0.93
2023-04-23T12:42:54.546Z,0.85
2023-04-23T12:46:16.802Z,0.70
2023-04-23T12:49:40.839Z,0.77
2023-04-23T12:53:03.673Z,0.70
2023-04-23T12:56:26.576Z,0.80
2023-04-23T12:59:49.433Z,0.80
2023-04-23T13:03:13.820Z,0.88
2023-04-23T13:06:36.363Z,0.80
2023-04-23T13:09:59.655Z,0.73
2023-04-23T13:13:22.054Z,0.70
2023-04-23T13:16:44.797Z,0.70
2023-04-23T13:20:07.702Z,0.75
2023-04-23T13:23:29.966Z,0.60
2023-04-23T13:26:52.241Z,0.80
2023-04-23T13:30:14.481Z,0.50
2023-04-23T13:33:36.720Z,0.77
2023-04-23T13:36:59.005Z,0.60
2023-04-23T13:40:21.304Z,0.65
2023-04-23T13:43:43.780Z,0.70
2023-04-23T13:47:06.055Z,0.70
2023-04-23T13:50:28.902Z,0.63
2023-04-23T13:53:51.224Z,0.63
2023-04-23T13:57:13.453Z,0.60
2023-04-23T14:00:35.838Z,0.57
2023-04-23T14:03:58.216Z,0.70
2023-04-23T14:07:20.513Z,0.63
2023-04-23T14:10:43.801Z,0.80
2023-04-23T14:14:07.462Z,0.68
2023-04-23T14:17:29.769Z,0.70
2023-04-23T14:20:52.113Z,0.80
2023-04-23T14:24:28.380Z,0.50
2023-04-23T14:27:51.561Z,0.88
2023-04-23T14:31:13.842Z,0.80
2023-04-23T14:34:36.345Z,0.82
2023-04-23T14:37:58.697Z,0.55
2023-04-23T14:41:21.032Z,0.50
2023-04-23T14:44:43.269Z,0.45
2023-04-23T14:48:05.800Z,0.45
2023-04-23T14:51:28.096Z,0.50
2023-04-23T14:54:50.558Z,0.60
2023-04-23T14:58:12.875Z,0.57
2023-04-23T15:01:35.452Z,0.65
2023-04-23T15:04:57.847Z,0.40
2023-04-23T15:08:20.986Z,0.60
2023-04-23T15:11:43.521Z,0.50
2023-04-23T15:15:14.392Z,0.80
2023-04-23T15:18:36.831Z,0.50
2023-04-23T15:21:59.455Z,0.50
2023-04-23T15:25:21.907Z,0.85
2023-04-23T15:28:44.208Z,0.47
2023-04-23T15:32:06.475Z,0.52
2023-04-23T15:35:29.006Z,0.40
2023-04-23T15:38:51.428Z,0.40
2023-04-23T15:42:15.109Z,0.75
2023-04-23T15:45:37.340Z,0.68
2023-04-23T15:49:00.319Z,0.60
2023-04-23T15:52:22.631Z,0.68
2023-04-23T15:55:44.903Z,0.60
2023-04-23T15:59:07.700Z,0.50
2023-04-23T16:02:30.934Z,0.70
2023-04-23T16:05:53.531Z,0.90
2023-04-23T16:09:15.784Z,0.60
2023-04-23T16:12:38.070Z,0.75
2023-04-23T16:16:00.583Z,0.60
2023-04-23T16:19:22.854Z,0.60
2023-04-23T16:22:45.333Z,0.65
2023-04-23T16:26:08.795Z,0.68
2023-04-23T16:29:31.180Z,0.70
2023-04-23T16:32:53.710Z,0.70
2023-04-23T16:36:16.021Z,0.55
2023-04-23T16:39:38.296Z,0.60
2023-04-23T16:43:00.550Z,0.70
2023-04-23T16:46:22.892Z,0.70
2023-04-23T16:49:45.273Z,0.57
2023-04-23T16:53:07.473Z,0.50
2023-04-23T16:56:29.897Z,0.60
2023-04-23T16:59:54.400Z,0.68
2023-04-23T17:03:16.982Z,0.73
2023-04-23T17:06:39.383Z,0.65
2023-04-23T17:10:01.776Z,0.70
2023-04-23T17:13:24.196Z,0.80
2023-04-23T17:16:46.465Z,0.55
2023-04-23T17:20:09.082Z,0.68
2023-04-23T17:23:31.514Z,0.70
2023-04-23T17:26:53.742Z,0.60
2023-04-23T17:30:16.235Z,0.70
2023-04-23T17:33:38.762Z,0.93
2023-04-23T17:37:01.317Z,0.85
2023-04-23T17:40:23.561Z,0.70
2023-04-23T17:43:45.991Z,0.68
2023-04-23T17:47:10.238Z,0.85
2023-04-23T17:50:32.601Z,1.00
2023-04-23T17:53:54.891Z,0.93
2023-04-23T17:57:17.081Z,0.95
2023-04-23T18:00:43.182Z,1.30
2023-04-23T18:04:06.031Z,1.30
2023-04-23T18:07:28.536Z,2.38
2023-04-23T18:10:50.784Z,15.02
2023-04-23T18:14:13.109Z,15.98
2023-04-23T18:17:35.424Z,16.15
2023-04-23T18:20:57.867Z,15.88
2023-04-23T18:24:20.230Z,16.30
2023-04-23T18:27:42.498Z,20.60
2023-04-23T18:31:04.746Z,25.63
2023-04-23T18:34:32.629Z,20.23
2023-04-23T18:38:02.699Z,19.80
2023-04-23T18:41:25.074Z,15.82
2023-04-23T18:44:47.359Z,15.10
2023-04-23T18:48:28.595Z,13.23
2023-04-23T18:51:51.768Z,13.35
2023-04-23T18:55:14.129Z,13.57
2023-04-23T18:58:36.411Z,11.82
2023-04-23T19:01:58.691Z,12.70
2023-04-23T19:05:21.304Z,10.05
2023-04-23T19:08:43.553Z,10.35
2023-04-23T19:12:06.057Z,6.95
2023-04-23T19:15:28.417Z,6.97
2023-04-23T19:18:51.163Z,6.32
2023-04-23T19:22:13.421Z,6.30
2023-04-23T19:25:36.527Z,5.63
2023-04-23T19:28:58.790Z,5.30
2023-04-23T19:32:22.165Z,5.18
2023-04-23T19:35:44.438Z,4.68
2023-04-23T19:39:06.995Z,4.72
2023-04-23T19:42:30.083Z,4.65
2023-04-23T19:45:52.546Z,3.95
2023-04-23T19:49:14.719Z,4.25
2023-04-23T19:52:37.338Z,3.58
2023-04-23T19:55:59.591Z,3.40
2023-04-23T19:59:22.444Z,3.25
2023-04-23T20:02:44.923Z,3.63
2023-04-23T20:06:07.268Z,3.60
2023-04-23T20:09:29.721Z,3.20
2023-04-23T20:12:51.972Z,3.30
2023-04-23T20:16:14.218Z,3.60
2023-04-23T20:19:36.805Z,3.55
2023-04-23T20:22:59.012Z,3.28
2023-04-23T20:26:21.214Z,3.53
2023-04-23T20:29:43.591Z,3.50
2023-04-23T20:33:07.162Z,3.40
2023-04-23T20:36:31.510Z,3.20
2023-04-23T20:39:54.425Z,3.50
2023-04-23T20:43:17.430Z,3.33
2023-04-23T20:46:40.214Z,3.20
2023-04-23T20:50:02.525Z,3.78
2023-04-23T20:53:26.498Z,2.88
2023-04-23T20:56:53.922Z,3.70
2023-04-23T21:00:16.406Z,3.17
2023-04-23T21:03:39.780Z,4.10
2023-04-23T21:07:02.237Z,3.65
2023-04-23T21:10:24.740Z,3.00
2023-04-23T21:13:46.997Z,3.83
2023-04-23T21:17:09.495Z,3.55
2023-04-23T21:20:31.812Z,3.50
2023-04-23T21:23:54.107Z,3.05
2023-04-23T21:27:25.108Z,3.97
2023-04-23T21:31:01.191Z,3.08
2023-04-23T21:34:23.530Z,3.35
2023-04-23T21:37:45.998Z,3.40
2023-04-23T21:41:08.637Z,3.55
2023-04-23T21:44:31.772Z,3.35
2023-04-23T21:47:56.814Z,3.28
2023-04-23T21:51:21.554Z,3.22
2023-04-23T21:54:43.776Z,2.80
2023-04-23T21:58:16.758Z,3.45
2023-04-23T22:01:40.965Z,3.17
2023-04-23T22:05:04.759Z,3.35
2023-04-23T22:08:27.086Z,2.85
2023-04-23T22:12:01.075Z,3.38
2023-04-23T22:15:24.345Z,3.20
2023-04-23T22:18:46.963Z,3.05
2023-04-23T22:22:09.182Z,2.97
2023-04-23T22:25:31.427Z,2.50
2023-04-23T22:28:53.690Z,2.72
2023-04-23T22:32:15.952Z,2.90
2023-04-23T22:35:38.295Z,2.63
2023-04-23T22:39:01.877Z,2.63
2023-04-23T22:42:24.184Z,2.95
2023-04-23T22:45:46.537Z,2.88
2023-04-23T22:49:11.117Z,2.80
2023-04-23T22:52:33.657Z,2.92
2023-04-23T22:55:56.166Z,2.80
2023-04-23T22:59:18.788Z,2.72
2023-04-23T23:02:41.601Z,2.42
2023-04-23T23:06:04.047Z,3.25
2023-04-23T23:09:26.360Z,2.65
2023-04-23T23:12:48.653Z,2.58
2023-04-23T23:16:11.477Z,2.47
2023-04-23T23:19:33.706Z,2.40
2023-04-23T23:22:55.979Z,2.60
2023-04-23T23:26:18.636Z,2.35
2023-04-23T23:29:41.233Z,2.65
2023-04-23T23:33:03.865Z,2.10
2023-04-23T23:36:26.198Z,2.58
2023-04-23T23:39:48.453Z,2.20
2023-04-23T23:43:10.993Z,2.25
2023-04-23T23:46:33.306Z,2.30
2023-04-23T23:49:55.563Z,2.25
2023-04-23T23:53:17.851Z,2.80
2023-04-23T23:56:40.529Z,2.20
